Terminal Aerodrome Forecast
Issued by NWS

Home | Current Version | Previous Version | Text Only | Print | Product List | Glossary On
Versions: 1 2 3 4 5 6 7 8 9 10 11 12 13 14 15 16 17 18 19 20 21
056
FTUS46 KLOX 280541
TAFSBP
TAF
KSBP 280541Z 2806/2906 VRB03KT P6SM OVC007
     FM281500 VRB03KT 6SM BR OVC010
     FM281800 30008KT P6SM SCT150
     FM290300 VRB03KT P6SM SCT150=

USA.gov is the U.S. government's official web portal to all federal, state and local government web resources and services.